Time;durP1;ratioP1;P1;durP2;ratioP2;P2;SDS_P1;SDS_P2;PMS_P1;PMS_P2;Temp;Humidity;BMP_temperature;BMP_pressure;BME280_temperature;BME280_humidity;BME280_pressure;Samples;Min_cycle;Max_cycle;Signal;HPM_P1;HPM_P2
2021/03/13 00:00:09;;;;;;;19.15;18.25;;;6.60;87.80;;;;;;5073198;28;20650;-76
2021/03/13 00:02:35;;;;;;;17.95;17.05;;;6.50;88.00;;;;;;5073110;28;20198;-77
2021/03/13 00:05:03;;;;;;;18.15;17.05;;;6.40;88.10;;;;;;5073500;28;20208;-76
2021/03/13 00:07:29;;;;;;;18.60;17.70;;;6.30;88.70;;;;;;5073500;28;20201;-76
2021/03/13 00:09:55;;;;;;;18.45;17.35;;;6.50;87.90;;;;;;5073242;28;20225;-76
2021/03/13 00:12:23;;;;;;;17.45;16.55;;;6.60;87.00;;;;;;5073425;28;20227;-77
2021/03/13 00:14:49;;;;;;;17.38;16.30;;;6.70;86.70;;;;;;5073104;28;20197;-76
2021/03/13 00:17:16;;;;;;;16.23;15.43;;;6.60;86.80;;;;;;5073227;28;20583;-76
2021/03/13 00:19:42;;;;;;;16.70;15.90;;;6.60;87.70;;;;;;5073034;28;20289;-76
2021/03/13 00:22:09;;;;;;;17.88;16.98;;;6.60;87.40;;;;;;5073501;28;20282;-76
2021/03/13 00:24:35;;;;;;;17.65;16.55;;;6.60;87.20;;;;;;5076404;28;20201;-76
2021/03/13 00:27:02;;;;;;;17.67;16.77;;;6.60;87.40;;;;;;5077250;28;20209;-76
2021/03/13 00:29:29;;;;;;;15.77;14.95;;;6.60;88.00;;;;;;5077359;28;20217;-76
2021/03/13 00:31:56;;;;;;;16.27;15.48;;;6.70;88.50;;;;;;5077384;28;20206;-76
2021/03/13 00:34:22;;;;;;;16.58;15.68;;;6.80;88.30;;;;;;5077073;28;20677;-76
2021/03/13 00:36:49;;;;;;;16.20;15.40;;;6.80;88.30;;;;;;5076538;28;20633;-76
2021/03/13 00:39:16;;;;;;;16.23;15.32;;;6.80;88.40;;;;;;5076858;28;20305;-76
2021/03/13 00:41:42;;;;;;;16.70;15.90;;;6.80;88.10;;;;;;5076854;28;20192;-76
2021/03/13 00:44:09;;;;;;;17.60;16.45;;;6.80;87.70;;;;;;5076897;28;20288;-76
2021/03/13 00:46:36;;;;;;;16.20;15.30;;;6.80;87.60;;;;;;5076033;28;20223;-76
2021/03/13 00:49:04;;;;;;;17.00;16.10;;;6.70;88.40;;;;;;5076609;28;20587;-76
2021/03/13 00:51:30;;;;;;;16.98;16.17;;;6.70;87.90;;;;;;5080092;28;20227;-76
2021/03/13 00:53:57;;;;;;;16.45;15.70;;;6.80;87.40;;;;;;5076761;28;20222;-77
2021/03/13 00:56:23;;;;;;;16.60;15.80;;;6.90;87.00;;;;;;5076375;28;20201;-76
2021/03/13 00:58:49;;;;;;;16.75;15.75;;;6.90;87.10;;;;;;5076551;28;20699;-76
2021/03/13 01:01:16;;;;;;;16.33;15.50;;;7.00;86.10;;;;;;5076207;28;20206;-76
2021/03/13 01:03:43;;;;;;;16.10;15.30;;;6.90;86.30;;;;;;5076314;28;20200;-76
2021/03/13 01:06:09;;;;;;;16.30;15.60;;;6.90;86.40;;;;;;5076224;28;20193;-76
2021/03/13 01:08:37;;;;;;;15.57;14.88;;;6.90;86.60;;;;;;5078409;28;20705;-76
2021/03/13 01:11:03;;;;;;;16.10;15.30;;;6.90;86.30;;;;;;5076163;28;20200;-76
2021/03/13 01:13:30;;;;;;;16.92;16.02;;;6.90;86.50;;;;;;5075842;28;20221;-76
2021/03/13 01:15:57;;;;;;;15.30;14.60;;;6.90;86.00;;;;;;5075578;28;20201;-78
2021/03/13 01:18:23;;;;;;;15.52;14.82;;;6.80;86.80;;;;;;5075939;28;20216;-76
2021/03/13 01:20:51;;;;;;;15.25;14.45;;;6.80;87.00;;;;;;5076196;28;20202;-76
2021/03/13 01:23:18;;;;;;;16.10;15.20;;;6.70;87.60;;;;;;5076159;28;20192;-77
2021/03/13 01:25:44;;;;;;;15.55;14.75;;;6.70;87.40;;;;;;5075828;28;20248;-76
2021/03/13 01:28:10;;;;;;;15.63;15.02;;;6.70;87.60;;;;;;5075598;28;20717;-76
2021/03/13 01:30:37;;;;;;;15.35;14.65;;;6.70;87.10;;;;;;5075498;28;20204;-76
2021/03/13 01:33:03;;;;;;;15.57;14.88;;;6.70;87.00;;;;;;5075441;28;20251;-76
2021/03/13 01:35:30;;;;;;;15.90;15.10;;;6.60;87.00;;;;;;5074588;28;20574;-77
2021/03/13 01:37:57;;;;;;;15.50;14.80;;;6.50;87.40;;;;;;5075566;28;20209;-76
2021/03/13 01:40:23;;;;;;;16.00;15.23;;;6.60;87.60;;;;;;5075492;28;20238;-76
2021/03/13 01:42:51;;;;;;;16.60;15.70;;;6.60;87.60;;;;;;5075287;28;20222;-77
2021/03/13 01:45:19;;;;;;;15.93;15.13;;;6.50;88.10;;;;;;5074975;28;20192;-77
2021/03/13 01:47:46;;;;;;;14.90;14.30;;;6.50;87.80;;;;;;5075012;28;20205;-76
2021/03/13 01:50:14;;;;;;;14.85;14.25;;;6.40;87.90;;;;;;5075206;28;20706;-76
2021/03/13 01:52:41;;;;;;;15.40;14.70;;;6.50;88.00;;;;;;5074907;28;20220;-77
2021/03/13 01:55:11;;;;;;;15.98;15.20;;;6.40;88.10;;;;;;5075020;28;20654;-76
2021/03/13 01:57:37;;;;;;;17.17;16.08;;;6.30;88.60;;;;;;5074943;28;20617;-76
2021/03/13 02:00:06;;;;;;;15.82;15.00;;;6.20;89.40;;;;;;5075206;28;20216;-76
2021/03/13 02:02:32;;;;;;;15.40;14.60;;;6.20;90.50;;;;;;5074447;28;20196;-77
2021/03/13 02:04:59;;;;;;;16.40;15.50;;;6.10;90.90;;;;;;5074689;28;20208;-76
2021/03/13 02:07:29;;;;;;;15.65;14.73;;;6.10;90.70;;;;;;5074654;28;20669;-76
2021/03/13 02:10:02;;;;;;;15.65;14.90;;;6.20;90.30;;;;;;5074506;28;20217;-77
2021/03/13 02:12:48;;;;;;;15.80;15.10;;;6.20;89.90;;;;;;5074679;28;20220;-77
2021/03/13 02:15:24;;;;;;;15.23;14.40;;;6.20;89.90;;;;;;5074800;28;20206;-76
2021/03/13 02:17:58;;;;;;;15.57;14.65;;;6.30;89.90;;;;;;5074507;28;20569;-76
2021/03/13 02:20:41;;;;;;;14.75;13.85;;;6.30;89.90;;;;;;5074445;28;20216;-76
2021/03/13 02:23:09;;;;;;;15.77;14.98;;;6.30;89.80;;;;;;5074796;28;20201;-76
2021/03/13 02:25:47;;;;;;;14.60;14.00;;;6.20;90.60;;;;;;5074448;28;20200;-76
2021/03/13 02:28:21;;;;;;;15.63;14.93;;;6.10;90.80;;;;;;5074357;28;20254;-77
2021/03/13 02:30:51;;;;;;;16.30;15.20;;;6.20;90.40;;;;;;5074451;28;20544;-76
2021/03/13 02:33:23;;;;;;;25.73;15.05;;;6.20;90.40;;;;;;5074179;28;20218;-77
2021/03/13 02:35:56;;;;;;;14.90;14.10;;;6.20;90.60;;;;;;5074313;28;20238;-76
2021/03/13 02:38:27;;;;;;;14.20;13.60;;;6.20;90.90;;;;;;5074497;28;20316;-76
2021/03/13 02:40:56;;;;;;;14.57;13.82;;;6.10;90.90;;;;;;5074492;28;20584;-76
2021/03/13 02:43:24;;;;;;;15.00;14.05;;;6.20;91.50;;;;;;5074222;28;20192;-76
2021/03/13 02:45:59;;;;;;;15.07;14.38;;;6.10;90.90;;;;;;5073687;28;20642;-76
2021/03/13 02:48:27;;;;;;;14.93;14.13;;;6.10;91.00;;;;;;5073350;28;20221;-76
2021/03/13 02:50:54;;;;;;;14.68;13.85;;;6.10;90.70;;;;;;5073903;28;20210;-76
2021/03/13 02:53:22;;;;;;;15.57;14.50;;;6.10;90.60;;;;;;5073911;28;20577;-76
2021/03/13 02:55:51;;;;;;;15.45;14.50;;;6.20;90.00;;;;;;5073723;28;20197;-76
2021/03/13 02:58:19;;;;;;;15.20;14.40;;;6.20;89.80;;;;;;5073804;28;20196;-76
2021/03/13 03:00:46;;;;;;;14.77;14.07;;;6.20;90.00;;;;;;5074072;28;20197;-76
2021/03/13 03:03:16;;;;;;;15.30;14.50;;;6.20;89.90;;;;;;5073766;28;20219;-76
2021/03/13 03:05:43;;;;;;;15.18;14.38;;;6.30;89.60;;;;;;5075220;28;20279;-77
2021/03/13 03:08:11;;;;;;;15.60;14.70;;;6.30;89.10;;;;;;5078071;28;20225;-76
2021/03/13 03:10:42;;;;;;;15.98;15.18;;;6.40;88.80;;;;;;5073773;28;20228;-76
2021/03/13 03:13:09;;;;;;;16.05;14.88;;;6.30;89.50;;;;;;5073710;28;20223;-76
2021/03/13 03:15:36;;;;;;;355.20;47.08;;;6.30;89.00;;;;;;5073921;28;20196;-76
2021/03/13 03:18:06;;;;;;;16.42;15.23;;;6.40;88.90;;;;;;5073858;28;20564;-76
2021/03/13 03:20:36;;;;;;;15.73;14.82;;;6.40;88.30;;;;;;5073988;28;20214;-76
2021/03/13 03:23:04;;;;;;;15.93;14.70;;;6.50;88.00;;;;;;5074015;28;20684;-76
2021/03/13 03:25:30;;;;;;;15.60;14.70;;;6.50;87.80;;;;;;5073733;28;20209;-76
2021/03/13 03:27:56;;;;;;;15.30;14.40;;;6.60;87.40;;;;;;5073891;28;20200;-76
2021/03/13 03:30:25;;;;;;;15.73;14.43;;;6.60;87.10;;;;;;5073738;28;20331;-76
2021/03/13 03:32:52;;;;;;;16.70;15.45;;;6.70;86.90;;;;;;5073689;28;20229;-76
2021/03/13 03:35:20;;;;;;;15.60;14.80;;;6.70;86.70;;;;;;5073332;28;20204;-76
2021/03/13 03:37:47;;;;;;;16.83;15.82;;;6.80;86.60;;;;;;5073055;28;20659;-76
2021/03/13 03:40:16;;;;;;;15.88;14.93;;;6.90;86.20;;;;;;5073395;28;20220;-76
2021/03/13 03:42:47;;;;;;;15.90;15.10;;;6.90;85.70;;;;;;5073293;28;20194;-76
2021/03/13 03:45:17;;;;;;;17.10;16.00;;;7.00;85.10;;;;;;5073301;28;20203;-76
2021/03/13 03:47:44;;;;;;;16.00;15.27;;;7.00;85.30;;;;;;5072849;28;20203;-76
2021/03/13 03:50:12;;;;;;;15.93;14.90;;;7.10;85.20;;;;;;5074450;28;20256;-76
2021/03/13 03:52:38;;;;;;;15.25;14.43;;;7.20;84.80;;;;;;5074098;28;20230;-77
2021/03/13 03:55:07;;;;;;;16.13;15.00;;;7.20;84.80;;;;;;5075772;28;20669;-76
2021/03/13 03:57:34;;;;;;;15.75;14.93;;;7.10;84.90;;;;;;5078760;28;20206;-77
2021/03/13 04:00:02;;;;;;;17.25;16.35;;;7.20;84.90;;;;;;5072780;28;20226;-76
2021/03/13 04:02:30;;;;;;;17.42;16.40;;;7.20;84.30;;;;;;5072856;28;20195;-77
2021/03/13 04:04:58;;;;;;;17.15;16.25;;;7.20;84.30;;;;;;5072607;28;20210;-78
2021/03/13 04:07:24;;;;;;;16.85;15.75;;;7.30;84.30;;;;;;5072639;28;20603;-77
2021/03/13 04:09:51;;;;;;;16.90;16.00;;;7.40;84.30;;;;;;5072642;28;20215;-76
2021/03/13 04:12:20;;;;;;;16.92;15.77;;;7.40;84.10;;;;;;5072710;28;20232;-77
2021/03/13 04:14:48;;;;;;;17.38;16.38;;;7.40;84.20;;;;;;5072801;28;20610;-76
2021/03/13 04:17:16;;;;;;;17.60;16.80;;;7.40;83.90;;;;;;5072445;28;20202;-77
2021/03/13 04:19:43;;;;;;;17.85;16.90;;;7.40;84.50;;;;;;5072570;28;20220;-76
2021/03/13 04:22:10;;;;;;;17.75;16.38;;;7.40;84.30;;;;;;5072696;28;20200;-77
2021/03/13 04:24:38;;;;;;;16.90;15.93;;;7.30;84.80;;;;;;5072601;28;20203;-77
2021/03/13 04:27:06;;;;;;;17.40;16.40;;;7.50;84.60;;;;;;5072605;28;20202;-76
2021/03/13 04:29:33;;;;;;;17.90;16.80;;;7.60;83.70;;;;;;5072475;28;20223;-77
2021/03/13 04:32:01;;;;;;;18.25;17.15;;;7.60;83.40;;;;;;5072426;28;20695;-76
2021/03/13 04:34:29;;;;;;;17.70;16.70;;;7.70;83.00;;;;;;5072353;28;20693;-77
2021/03/13 04:36:57;;;;;;;18.13;17.17;;;7.60;83.20;;;;;;5072281;28;20200;-76
2021/03/13 04:39:25;;;;;;;17.75;16.80;;;7.60;83.40;;;;;;5072398;28;20220;-77
2021/03/13 04:41:52;;;;;;;18.17;17.10;;;7.60;83.30;;;;;;5072521;28;20286;-76
2021/03/13 04:44:19;;;;;;;17.55;16.75;;;7.60;83.20;;;;;;5072348;28;20205;-77
2021/03/13 04:46:47;;;;;;;17.20;16.40;;;7.60;83.50;;;;;;5071951;28;20198;-77
2021/03/13 04:49:14;;;;;;;17.25;16.35;;;7.70;83.00;;;;;;5072395;28;20230;-77
2021/03/13 04:51:41;;;;;;;17.08;16.17;;;7.80;82.60;;;;;;5072243;28;20223;-76
2021/03/13 04:54:08;;;;;;;16.80;16.00;;;7.80;82.80;;;;;;5072378;28;20633;-76
2021/03/13 04:56:34;;;;;;;18.08;17.02;;;7.80;82.70;;;;;;5072238;28;20227;-79
2021/03/13 04:59:01;;;;;;;16.98;16.00;;;7.70;82.80;;;;;;5072457;28;20212;-77
2021/03/13 05:01:27;;;;;;;16.95;16.05;;;7.70;82.60;;;;;;5072598;28;20202;-76
2021/03/13 05:03:54;;;;;;;17.98;16.90;;;7.70;82.50;;;;;;5072630;28;20211;-77
2021/03/13 05:06:20;;;;;;;17.48;16.58;;;7.60;82.50;;;;;;5072820;28;20196;-77
2021/03/13 05:08:47;;;;;;;17.15;16.25;;;7.60;82.30;;;;;;5076437;28;20214;-77
2021/03/13 05:11:13;;;;;;;17.67;16.65;;;7.60;82.20;;;;;;5078769;28;20629;-77
2021/03/13 05:13:40;;;;;;;17.10;16.23;;;7.50;82.60;;;;;;5079267;28;20227;-77
2021/03/13 05:16:06;;;;;;;17.40;16.60;;;7.60;82.40;;;;;;5082749;28;20226;-77
2021/03/13 05:18:32;;;;;;;17.40;16.55;;;7.60;82.30;;;;;;5083802;28;20320;-78
2021/03/13 05:21:00;;;;;;;17.80;16.90;;;7.60;81.90;;;;;;5078709;28;20192;-77
2021/03/13 05:23:26;;;;;;;17.65;16.75;;;7.60;82.20;;;;;;5076223;28;20199;-76
2021/03/13 05:25:53;;;;;;;17.30;16.38;;;7.80;81.10;;;;;;5075466;28;20199;-78
2021/03/13 05:28:19;;;;;;;18.05;17.00;;;7.80;81.00;;;;;;5075532;28;20668;-76
2021/03/13 05:30:46;;;;;;;19.23;18.23;;;7.80;80.80;;;;;;5075689;28;20279;-76
2021/03/13 05:33:12;;;;;;;19.23;18.23;;;7.80;80.30;;;;;;5075381;28;20226;-77
2021/03/13 05:35:40;;;;;;;20.85;19.75;;;7.90;80.30;;;;;;5075289;28;20606;-76
2021/03/13 05:38:07;;;;;;;20.02;18.88;;;8.00;79.70;;;;;;5075260;28;20562;-77
2021/03/13 05:40:33;;;;;;;20.70;19.70;;;8.00;79.40;;;;;;5075405;28;20200;-77
2021/03/13 05:43:00;;;;;;;20.50;19.50;;;8.00;79.30;;;;;;5075347;28;20192;-77
2021/03/13 05:45:27;;;;;;;19.25;18.30;;;8.00;79.10;;;;;;5075178;28;20199;-79
2021/03/13 05:47:54;;;;;;;19.15;17.85;;;8.10;78.70;;;;;;5075227;28;20800;-77
2021/03/13 05:50:22;;;;;;;18.80;17.90;;;8.20;78.50;;;;;;5075027;28;20622;-77
2021/03/13 05:52:54;;;;;;;18.38;17.40;;;8.20;78.50;;;;;;5074979;28;20224;-76
2021/03/13 05:55:21;;;;;;;19.08;18.13;;;8.20;78.20;;;;;;5075320;28;20200;-77
2021/03/13 05:57:50;;;;;;;20.33;19.25;;;8.30;77.60;;;;;;5075154;28;20207;-76
2021/03/13 06:00:18;;;;;;;19.60;18.60;;;8.30;77.30;;;;;;5075055;28;20272;-76
2021/03/13 06:02:45;;;;;;;19.48;18.27;;;8.40;77.30;;;;;;5075140;28;20196;-76
2021/03/13 06:05:13;;;;;;;22.55;21.25;;;8.40;77.30;;;;;;5075112;28;20207;-76
2021/03/13 06:07:41;;;;;;;20.20;19.10;;;8.50;76.30;;;;;;5075018;28;20208;-76
2021/03/13 06:10:08;;;;;;;20.50;19.40;;;8.50;76.70;;;;;;5075338;28;20306;-77
2021/03/13 06:12:35;;;;;;;20.00;18.90;;;8.40;76.20;;;;;;5074990;28;20200;-76
2021/03/13 06:15:02;;;;;;;20.08;19.00;;;8.40;76.50;;;;;;5075055;28;20196;-76
2021/03/13 06:17:28;;;;;;;20.92;19.60;;;8.40;76.70;;;;;;5074976;28;20203;-76
2021/03/13 06:19:56;;;;;;;21.67;20.38;;;8.50;76.00;;;;;;5074713;28;20287;-76
2021/03/13 06:22:36;;;;;;;20.20;19.10;;;8.50;75.80;;;;;;5074603;28;20207;-76
2021/03/13 06:25:19;;;;;;;21.33;20.10;;;8.50;75.80;;;;;;5074791;28;20196;-76
2021/03/13 06:27:50;;;;;;;21.52;20.27;;;8.60;75.90;;;;;;5074546;28;20283;-76
2021/03/13 06:30:17;;;;;;;21.85;20.40;;;8.70;75.00;;;;;;5074785;28;20224;-77
2021/03/13 06:32:45;;;;;;;22.17;20.67;;;8.70;74.70;;;;;;5074163;28;20253;-77
2021/03/13 06:35:22;;;;;;;21.20;20.00;;;8.80;74.50;;;;;;5074260;28;20321;-76
2021/03/13 06:37:49;;;;;;;22.35;20.85;;;8.90;73.80;;;;;;5074204;28;20198;-76
2021/03/13 06:40:33;;;;;;;21.90;20.52;;;9.00;73.40;;;;;;5074207;28;20212;-77
2021/03/13 06:43:02;;;;;;;22.33;21.02;;;8.90;73.10;;;;;;5074073;28;20196;-77
2021/03/13 06:45:29;;;;;;;22.08;20.65;;;9.10;73.30;;;;;;5073888;28;20196;-77
2021/03/13 06:47:56;;;;;;;20.98;19.77;;;9.20;73.10;;;;;;5073929;28;20283;-76
2021/03/13 06:50:24;;;;;;;21.35;20.20;;;9.30;72.80;;;;;;5073903;28;20226;-77
2021/03/13 06:52:53;;;;;;;21.55;20.25;;;9.40;72.00;;;;;;5073763;28;20200;-76
2021/03/13 06:55:21;;;;;;;21.33;20.23;;;9.50;71.00;;;;;;5074002;28;20200;-77
2021/03/13 06:57:48;;;;;;;21.42;20.23;;;9.50;71.10;;;;;;5073808;28;20196;-77
2021/03/13 07:00:34;;;;;;;22.00;20.55;;;9.60;70.90;;;;;;5073976;28;20315;-77
2021/03/13 07:03:09;;;;;;;21.52;20.27;;;9.60;70.50;;;;;;5076492;28;20219;-77
2021/03/13 07:05:36;;;;;;;22.17;20.60;;;9.70;70.10;;;;;;5074259;28;20279;-77
2021/03/13 07:08:23;;;;;;;22.00;20.80;;;9.70;70.20;;;;;;5073639;28;20196;-77
2021/03/13 07:10:50;;;;;;;22.45;21.15;;;9.90;69.00;;;;;;5073666;28;20657;-77
2021/03/13 07:13:31;;;;;;;21.45;20.35;;;9.90;68.80;;;;;;5073507;28;20792;-77
2021/03/13 07:16:20;;;;;;;23.45;22.15;;;9.90;68.70;;;;;;5073453;28;20658;-76
2021/03/13 07:18:47;;;;;;;24.13;22.55;;;10.00;68.40;;;;;;5073610;28;20694;-76
2021/03/13 07:21:14;;;;;;;21.92;20.75;;;10.10;67.90;;;;;;5073498;28;20290;-77
2021/03/13 07:23:42;;;;;;;24.88;23.15;;;10.30;67.30;;;;;;5073284;28;20191;-76
2021/03/13 07:26:10;;;;;;;23.02;21.73;;;10.30;67.20;;;;;;5073423;28;20199;-77
2021/03/13 07:28:38;;;;;;;21.30;20.10;;;10.40;66.60;;;;;;5073308;28;20307;-76
2021/03/13 07:31:08;;;;;;;22.17;20.95;;;10.30;66.20;;;;;;5073240;28;20216;-77
2021/03/13 07:33:34;;;;;;;22.58;21.38;;;10.30;66.10;;;;;;5072652;28;20224;-77
2021/03/13 07:36:01;;;;;;;21.45;20.25;;;10.40;65.90;;;;;;5073088;28;20203;-77
2021/03/13 07:38:32;;;;;;;22.00;20.70;;;10.50;65.80;;;;;;5073091;28;20777;-77
2021/03/13 07:40:59;;;;;;;21.65;20.55;;;10.50;65.60;;;;;;5073182;28;20200;-77
2021/03/13 07:43:26;;;;;;;23.55;22.33;;;10.60;65.50;;;;;;5073555;28;20196;-77
2021/03/13 07:45:54;;;;;;;23.10;21.77;;;10.70;64.90;;;;;;5075328;28;20206;-77
2021/03/13 07:48:22;;;;;;;22.35;21.25;;;10.90;64.60;;;;;;5076161;28;20679;-76
2021/03/13 07:50:49;;;;;;;22.40;21.20;;;10.80;63.80;;;;;;5076450;28;20196;-78
2021/03/13 07:53:16;;;;;;;22.40;21.15;;;10.90;63.50;;;;;;5077315;28;20215;-76
2021/03/13 07:55:47;;;;;;;22.90;21.70;;;10.90;63.60;;;;;;5077579;28;20199;-77
2021/03/13 07:58:14;;;;;;;22.60;21.30;;;11.00;63.20;;;;;;5078820;28;20264;-77
2021/03/13 08:00:42;;;;;;;23.60;22.20;;;11.10;63.20;;;;;;5078836;28;20200;-77
2021/03/13 08:03:39;;;;;;;23.83;22.33;;;11.20;63.10;;;;;;5079893;28;20442;-77
2021/03/13 08:06:06;;;;;;;23.37;22.17;;;11.20;62.20;;;;;;5081034;28;20447;-77
2021/03/13 08:08:38;;;;;;;22.73;21.53;;;11.20;62.30;;;;;;5080617;28;20472;-77
2021/03/13 08:11:05;;;;;;;22.33;21.23;;;11.10;62.30;;;;;;5089551;28;20488;-77
2021/03/13 08:13:54;;;;;;;23.27;21.97;;;11.10;62.50;;;;;;5085863;28;20870;-77
2021/03/13 08:16:42;;;;;;;22.50;21.30;;;11.10;62.40;;;;;;5084399;28;20816;-77
2021/03/13 08:19:36;;;;;;;23.48;22.17;;;11.00;61.80;;;;;;5083014;28;20549;-76
2021/03/13 08:22:26;;;;;;;22.90;21.80;;;10.90;62.30;;;;;;5084373;28;20255;-77
2021/03/13 08:24:54;;;;;;;23.15;21.95;;;10.90;62.40;;;;;;5069807;28;20225;-76
2021/03/13 08:27:40;;;;;;;23.20;22.00;;;10.80;62.00;;;;;;5082928;28;20202;-77
2021/03/13 08:30:23;;;;;;;22.02;20.73;;;10.90;62.20;;;;;;5080626;28;20226;-77
2021/03/13 08:33:00;;;;;;;23.77;22.63;;;10.90;61.70;;;;;;5081474;28;20206;-76
2021/03/13 08:35:50;;;;;;;22.13;20.98;;;10.90;61.20;;;;;;5083316;28;20226;-77
2021/03/13 08:38:51;;;;;;;22.80;21.60;;;10.90;61.00;;;;;;5083273;28;20204;-77
2021/03/13 08:41:51;;;;;;;23.45;22.05;;;10.90;60.80;;;;;;5079243;28;20232;-77
2021/03/13 08:44:32;;;;;;;25.80;24.20;;;11.10;60.10;;;;;;5082038;28;20264;-77
2021/03/13 08:46:59;;;;;;;23.30;21.93;;;11.20;59.70;;;;;;5086215;28;20570;-77
2021/03/13 08:49:45;;;;;;;23.70;22.20;;;11.40;59.20;;;;;;5082565;28;20551;-77
2021/03/13 08:52:26;;;;;;;23.23;21.93;;;11.60;58.70;;;;;;5089918;28;20492;-77
2021/03/13 08:54:54;;;;;;;23.77;22.47;;;11.80;57.60;;;;;;5089663;28;20477;-77
2021/03/13 08:57:43;;;;;;;24.80;23.43;;;11.90;57.30;;;;;;5090220;28;20496;-77
2021/03/13 09:00:11;;;;;;;23.53;22.23;;;12.00;57.00;;;;;;5087043;28;20481;-77
2021/03/13 09:02:39;;;;;;;26.43;25.13;;;12.10;56.60;;;;;;5084749;28;20458;-76
2021/03/13 09:05:08;;;;;;;23.20;21.67;;;12.10;56.30;;;;;;5084989;28;20813;-76
2021/03/13 09:07:35;;;;;;;22.93;21.73;;;12.10;56.10;;;;;;5083754;28;20481;-77
2021/03/13 09:10:03;;;;;;;22.40;21.10;;;12.10;56.20;;;;;;5075520;28;20526;-77
2021/03/13 09:12:31;;;;;;;24.20;22.57;;;12.20;56.40;;;;;;5075825;28;20450;-77
2021/03/13 09:15:00;;;;;;;23.50;22.00;;;12.10;56.10;;;;;;5075623;28;20844;-76
2021/03/13 09:17:28;;;;;;;25.20;23.83;;;12.20;55.80;;;;;;5075662;28;20511;-77
2021/03/13 09:19:54;;;;;;;23.47;22.00;;;12.30;55.50;;;;;;5075536;28;20523;-77
2021/03/13 09:22:22;;;;;;;23.10;21.70;;;12.30;55.50;;;;;;5075512;28;20928;-77
2021/03/13 09:24:53;;;;;;;24.00;22.70;;;12.40;55.60;;;;;;5075582;28;20450;-77
2021/03/13 09:27:23;;;;;;;22.67;21.47;;;12.50;55.30;;;;;;5075420;28;20512;-77
2021/03/13 09:29:52;;;;;;;23.10;21.80;;;12.60;54.50;;;;;;5075454;28;20474;-77
2021/03/13 09:32:19;;;;;;;24.20;23.00;;;12.70;54.50;;;;;;5075410;28;20449;-76
2021/03/13 09:34:47;;;;;;;22.43;21.23;;;12.80;54.20;;;;;;5075400;28;20509;-77
2021/03/13 09:37:14;;;;;;;24.40;23.00;;;12.70;54.20;;;;;;5075353;28;20899;-76
2021/03/13 09:39:41;;;;;;;23.50;22.20;;;12.70;54.40;;;;;;5075258;28;20513;-77
2021/03/13 09:42:12;;;;;;;23.10;21.80;;;13.00;54.10;;;;;;5075188;28;20446;-77
2021/03/13 09:44:40;;;;;;;23.70;22.13;;;13.20;53.60;;;;;;5075153;28;20955;-77
2021/03/13 09:47:28;;;;;;;23.30;22.10;;;13.00;53.20;;;;;;5074631;28;20463;-77
2021/03/13 09:49:56;;;;;;;23.80;22.43;;;13.00;53.40;;;;;;5070637;28;20485;-77
2021/03/13 09:52:26;;;;;;;23.53;22.10;;;13.10;53.30;;;;;;5074837;28;21004;-77
2021/03/13 09:54:59;;;;;;;23.30;22.00;;;13.30;53.20;;;;;;5074854;28;20539;-77
2021/03/13 09:57:27;;;;;;;22.50;21.30;;;13.40;52.60;;;;;;5074187;28;20461;-77
2021/03/13 09:59:54;;;;;;;23.63;22.30;;;13.20;52.90;;;;;;5074839;28;20987;-77
2021/03/13 10:02:21;;;;;;;23.20;22.00;;;13.20;53.40;;;;;;5074759;28;20948;-76
2021/03/13 10:04:48;;;;;;;24.27;22.87;;;13.30;53.10;;;;;;5074655;28;20458;-77
2021/03/13 10:07:15;;;;;;;22.80;21.40;;;13.10;53.60;;;;;;5074544;28;20484;-77
2021/03/13 10:09:52;;;;;;;23.90;22.60;;;13.10;53.70;;;;;;5074586;28;21010;-77
2021/03/13 10:12:28;;;;;;;22.93;21.73;;;13.10;54.10;;;;;;5074648;28;20536;-76
2021/03/13 10:14:55;;;;;;;23.27;21.77;;;13.00;54.20;;;;;;5074627;28;20482;-77
2021/03/13 10:17:22;;;;;;;23.80;22.40;;;13.00;54.40;;;;;;5074723;28;20456;-77
2021/03/13 10:19:49;;;;;;;24.70;23.50;;;12.90;55.00;;;;;;5074389;28;20875;-77
2021/03/13 10:22:20;;;;;;;23.37;21.90;;;12.80;54.50;;;;;;5074407;28;20450;-77
2021/03/13 10:24:48;;;;;;;22.80;21.60;;;12.90;54.90;;;;;;5074763;28;20461;-78
2021/03/13 10:27:23;;;;;;;23.23;22.00;;;12.90;54.70;;;;;;5074264;28;20452;-77
2021/03/13 10:29:52;;;;;;;23.30;21.53;;;12.90;54.90;;;;;;5074318;28;20473;-77
2021/03/13 10:32:24;;;;;;;23.43;21.70;;;13.00;54.40;;;;;;5074167;28;20448;-77
2021/03/13 10:35:05;;;;;;;24.27;22.87;;;13.00;54.50;;;;;;5074429;28;20474;-77
2021/03/13 10:37:35;;;;;;;23.50;22.00;;;13.00;54.20;;;;;;5074173;28;20450;-77
2021/03/13 10:40:02;;;;;;;22.10;21.00;;;12.90;54.70;;;;;;5074108;28;20473;-77
2021/03/13 10:42:34;;;;;;;23.30;22.10;;;12.90;55.00;;;;;;5074102;28;20449;-77
2021/03/13 10:45:13;;;;;;;22.97;21.77;;;12.90;54.60;;;;;;5074027;28;20457;-77
2021/03/13 10:47:39;;;;;;;23.07;21.80;;;12.80;54.80;;;;;;5073585;28;20458;-77
2021/03/13 10:50:07;;;;;;;22.90;21.57;;;12.70;55.10;;;;;;5073986;28;20831;-77
2021/03/13 10:52:33;;;;;;;22.83;21.63;;;12.70;54.80;;;;;;5073671;28;20511;-77
2021/03/13 10:55:00;;;;;;;23.37;22.07;;;12.70;55.20;;;;;;5073849;28;21057;-76
2021/03/13 10:57:26;;;;;;;23.00;21.80;;;12.70;55.10;;;;;;5073914;28;20820;-77
2021/03/13 10:59:52;;;;;;;22.37;21.20;;;12.80;55.20;;;;;;5074315;28;20635;-77
2021/03/13 11:02:20;;;;;;;22.60;21.50;;;12.80;54.50;;;;;;5073777;28;20456;-77
2021/03/13 11:04:46;;;;;;;23.20;22.00;;;12.70;54.30;;;;;;5073819;28;20454;-77
2021/03/13 11:07:12;;;;;;;22.37;21.27;;;12.70;54.50;;;;;;5073039;28;20453;-77
2021/03/13 11:09:39;;;;;;;23.00;21.80;;;12.70;54.40;;;;;;5073002;28;20474;-77
2021/03/13 11:12:06;;;;;;;21.90;20.80;;;12.70;54.50;;;;;;5073654;28;20457;-77
2021/03/13 11:14:32;;;;;;;22.60;21.50;;;12.80;54.50;;;;;;5073421;28;20485;-77
2021/03/13 11:16:59;;;;;;;22.53;21.33;;;12.80;54.00;;;;;;5073483;28;20461;-77
2021/03/13 11:19:26;;;;;;;23.43;22.23;;;12.80;54.00;;;;;;5073540;28;20581;-77
2021/03/13 11:21:53;;;;;;;23.57;22.27;;;12.80;53.90;;;;;;5073498;28;20968;-77
2021/03/13 11:24:19;;;;;;;22.20;21.00;;;12.90;53.80;;;;;;5073528;28;20875;-77
2021/03/13 11:26:46;;;;;;;23.20;21.83;;;13.00;53.60;;;;;;5073069;28;20805;-77
2021/03/13 11:29:12;;;;;;;22.70;21.50;;;13.00;53.40;;;;;;5073241;28;20978;-77
2021/03/13 11:31:39;;;;;;;21.70;20.60;;;13.10;53.20;;;;;;5073170;28;20820;-77
2021/03/13 11:34:05;;;;;;;22.70;21.27;;;13.20;53.10;;;;;;5073115;28;20492;-77
2021/03/13 11:36:32;;;;;;;22.00;20.90;;;13.20;53.10;;;;;;5073254;28;20446;-77
2021/03/13 11:38:58;;;;;;;22.33;21.10;;;13.20;53.10;;;;;;5072836;28;20474;-77
2021/03/13 11:41:25;;;;;;;22.60;21.40;;;13.30;53.50;;;;;;5073138;28;20454;-77
2021/03/13 11:43:51;;;;;;;22.60;21.50;;;13.30;53.00;;;;;;5073077;28;20447;-77
2021/03/13 11:46:17;;;;;;;22.60;21.40;;;13.30;52.80;;;;;;5072588;28;20926;-76
2021/03/13 11:48:44;;;;;;;22.57;21.47;;;13.40;52.80;;;;;;5072873;28;20873;-77
2021/03/13 11:51:11;;;;;;;23.00;21.80;;;13.40;52.70;;;;;;5072757;28;20492;-76
2021/03/13 11:53:38;;;;;;;23.00;21.70;;;13.50;52.60;;;;;;5072832;28;20991;-77
2021/03/13 11:56:05;;;;;;;22.30;21.10;;;13.50;52.70;;;;;;5072597;28;20967;-77
2021/03/13 11:58:32;;;;;;;22.20;21.10;;;13.70;52.30;;;;;;5072831;28;20481;-77
2021/03/13 12:00:58;;;;;;;21.97;20.87;;;13.70;52.00;;;;;;5072698;28;20477;-77
2021/03/13 12:03:24;;;;;;;24.50;23.40;;;13.60;52.10;;;;;;5072779;28;20461;-77
2021/03/13 12:05:51;;;;;;;21.70;20.70;;;13.60;52.70;;;;;;5072660;28;20933;-76
2021/03/13 12:08:17;;;;;;;21.60;20.60;;;13.60;52.30;;;;;;5072578;28;20532;-77
2021/03/13 12:10:44;;;;;;;23.10;21.80;;;13.50;52.80;;;;;;5072696;28;20450;-77
2021/03/13 12:13:11;;;;;;;22.37;21.17;;;13.50;53.10;;;;;;5072649;28;20454;-77
2021/03/13 12:15:37;;;;;;;22.60;21.20;;;13.50;53.40;;;;;;5072577;28;20495;-76
2021/03/13 12:18:04;;;;;;;21.60;20.50;;;13.50;53.90;;;;;;5072582;28;20544;-77
2021/03/13 12:20:31;;;;;;;24.17;22.97;;;13.30;55.20;;;;;;5077976;28;20450;-77
2021/03/13 12:22:57;;;;;;;24.20;22.90;;;13.10;56.00;;;;;;5079025;28;20827;-77
2021/03/13 12:25:23;;;;;;;21.80;20.70;;;12.90;56.60;;;;;;5079305;28;20453;-76
2021/03/13 12:27:51;;;;;;;21.63;20.53;;;12.90;56.80;;;;;;5079016;28;20458;-76
2021/03/13 12:30:19;;;;;;;21.73;20.60;;;13.00;57.20;;;;;;5079151;28;20495;-77
2021/03/13 12:32:45;;;;;;;22.90;21.57;;;13.00;57.60;;;;;;5079303;28;20537;-77
2021/03/13 12:35:12;;;;;;;23.60;22.40;;;13.20;57.50;;;;;;5078913;28;20480;-77
2021/03/13 12:37:39;;;;;;;22.70;21.50;;;13.20;57.60;;;;;;5078962;28;20579;-77
2021/03/13 12:40:07;;;;;;;22.40;21.13;;;13.20;58.30;;;;;;5078998;28;20470;-77
2021/03/13 12:42:34;;;;;;;22.70;21.50;;;13.20;58.20;;;;;;5078963;28;20464;-77